Euskara    
Meteorología y climatología de Navarra
Datos de la estación - Meteo Navarra

Estación de Carrascal GN

Altitud 568 m.


Datos desde el 22/11/2020 hasta el 23/11/2020 en horario solar
Los datos son PROVISIONALES

Anterior Página 1 de 1 Siguiente Descargar: Formato para Excel 2000 o superior   Formato csv   Formato para OpenOffice Calc
Fecha Temperatura Humedad relativa Radiación global Insolación Precipitación Vel. viento 10 m Vel. viento 10 m Dir. viento 10 m
°C % W/m² s l/m² m/s km/h °
22/11/2020 0:00 2.6 73 0.0 0 0.0 1.5 5.3 193
22/11/2020 0:10 2.1 76 0.0 0 0.0 0.4 1.5 188
22/11/2020 0:20 1.9 77 0.0 0 0.0 0.1 0.5 196
22/11/2020 0:30 1.4 80 0.0 0 0.0 1.2 4.3 207
22/11/2020 0:40 1.4 80 0.0 0 0.0 2.0 7.2 199
22/11/2020 0:50 1.3 80 0.0 0 0.0 1.8 6.3 203
22/11/2020 1:00 1.0 82 0.0 0 0.0 2.0 7.0 195
22/11/2020 1:10 1.1 82 0.0 0 0.0 1.8 6.3 184
22/11/2020 1:20 1.0 82 0.0 0 0.0 1.8 6.3 196
22/11/2020 1:30 1.0 83 0.0 0 0.0 2.0 7.3 195
22/11/2020 1:40 0.9 83 0.0 0 0.0 1.7 6.2 184
22/11/2020 1:50 1.0 84 0.0 0 0.0 1.8 6.5 175
22/11/2020 2:00 1.1 83 0.0 0 0.0 1.4 5.1 177
22/11/2020 2:10 1.4 82 0.0 0 0.0 0.2 0.8 170
22/11/2020 2:20 1.5 81 0.0 0 0.0 0.2 0.6 167
22/11/2020 2:30 1.2 81 0.0 0 0.0 1.5 5.5 56
22/11/2020 2:40 1.5 81 0.0 0 0.0 1.4 5.1 42
22/11/2020 2:50 0.9 81 0.0 0 0.0 1.7 6.0 18
22/11/2020 3:00 0.3 86 0.0 0 0.0 1.8 6.6 24
22/11/2020 3:10 0.8 85 0.0 0 0.0 1.7 6.0 40
22/11/2020 3:20 1.0 84 0.0 0 0.0 1.3 4.8 50
22/11/2020 3:30 1.3 82 0.0 0 0.0 1.3 4.5 63
22/11/2020 3:40 1.8 81 0.0 0 0.0 1.4 5.1 60
22/11/2020 3:50 1.2 82 0.0 0 0.0 2.1 7.5 60
22/11/2020 4:00 0.7 85 0.0 0 0.0 1.7 6.0 43
22/11/2020 4:10 0.8 85 0.0 0 0.0 1.6 5.9 6
22/11/2020 4:20 0.9 84 0.0 0 0.0 1.7 6.2 22
22/11/2020 4:30 1.3 82 0.0 0 0.0 1.2 4.2 45
22/11/2020 4:40 1.7 80 0.0 0 0.0 1.0 3.7 60
22/11/2020 4:50 1.4 81 0.0 0 0.0 1.6 5.9 63
22/11/2020 5:00 1.1 84 0.0 0 0.0 2.0 7.1 43
22/11/2020 5:10 0.2 84 0.0 0 0.0 2.0 7.2 40
22/11/2020 5:20 0.3 87 0.0 0 0.0 1.8 6.4 31
22/11/2020 5:30 0.3 85 0.0 0 0.0 1.5 5.3 22
22/11/2020 5:40 0.4 86 0.0 0 0.0 1.6 5.8 30
22/11/2020 5:50 0.2 87 0.0 0 0.0 2.0 7.2 52
22/11/2020 6:00 0.3 87 0.0 0 0.0 1.9 6.8 48
22/11/2020 6:10 0.2 87 0.0 0 0.0 2.0 7.3 60
22/11/2020 6:20 0.2 88 0.0 0 0.0 1.1 4.0 43
22/11/2020 6:30 0.0 88 0.0 0 0.0 0.9 3.3 7
22/11/2020 6:40 0.2 88 0.0 0 0.0 0.3 1.1 0
22/11/2020 6:50 -0.1 88 0.0 0 0.0 0.3 1.2 1
22/11/2020 7:00 -0.4 91 0.0 0 0.0 0.2 0.8 41
22/11/2020 7:10 -0.3 91 0.0 0 0.0 1.0 3.5 174
22/11/2020 7:20 0.1 90 0.0 0 0.0 1.1 4.0 187
22/11/2020 7:30 0.3 88 3.3 0 0.0 0.4 1.5 141
22/11/2020 7:40 0.4 88 22.4 0 0.0 0.2 0.9 11
22/11/2020 7:50 0.2 87 43.9 216 0.0 0.9 3.4 19
22/11/2020 8:00 0.2 89 93.5 600 0.0 1.2 4.4 57
22/11/2020 8:10 0.6 87 117.3 600 0.0 1.0 3.6 41
22/11/2020 8:20 0.6 86 141.6 600 0.0 1.1 4.1 37
22/11/2020 8:30 0.9 86 166.3 600 0.0 1.2 4.2 38
22/11/2020 8:40 1.0 86 192.7 600 0.0 2.5 8.9 48
22/11/2020 8:50 0.6 88 218.9 600 0.0 2.3 8.4 29
22/11/2020 9:00 1.4 87 242.4 600 0.0 1.9 6.8 45
22/11/2020 9:10 2.3 85 265.7 600 0.0 1.7 6.2 43
22/11/2020 9:20 2.9 82 287.0 600 0.0 1.1 3.9 39
22/11/2020 9:30 3.5 80 307.4 600 0.0 1.0 3.6 42
22/11/2020 9:40 4.4 77 327.0 600 0.0 0.9 3.1 59
22/11/2020 9:50 4.8 76 346.2 600 0.0 0.6 2.1 74
22/11/2020 10:00 5.9 72 365.1 600 0.0 0.7 2.4 180
22/11/2020 10:10 8.2 64 383.9 600 0.0 1.0 3.6 195
22/11/2020 10:20 8.8 61 399.9 600 0.0 0.8 2.8 190
22/11/2020 10:30 9.1 61 415.5 600 0.0 1.2 4.4 215
22/11/2020 10:40 9.5 62 431.0 600 0.0 2.1 7.7 217
22/11/2020 10:50 9.8 61 443.5 600 0.0 2.4 8.6 218
22/11/2020 11:00 9.8 60 454.5 600 0.0 2.2 7.8 233
22/11/2020 11:10 9.9 61 462.8 600 0.0 2.1 7.6 229
22/11/2020 11:20 10.1 60 470.0 600 0.0 2.4 8.7 229
22/11/2020 11:30 10.3 59 475.8 600 0.0 2.5 8.9 232
22/11/2020 11:40 10.5 58 479.1 600 0.0 2.3 8.2 232
22/11/2020 11:50 10.5 58 479.6 600 0.0 2.6 9.3 238
22/11/2020 12:00 10.8 57 479.6 600 0.0 2.3 8.4 227
22/11/2020 12:10 11.1 56 477.7 600 0.0 2.1 7.4 234
22/11/2020 12:20 11.4 55 474.3 600 0.0 2.1 7.7 234
22/11/2020 12:30 11.4 56 469.6 600 0.0 2.5 9.0 233
22/11/2020 12:40 11.8 54 461.9 600 0.0 2.6 9.4 236
22/11/2020 12:50 12.2 54 453.5 600 0.0 3.0 10.9 230
22/11/2020 13:00 12.4 52 443.8 600 0.0 3.1 11.0 223
22/11/2020 13:10 12.3 52 432.9 600 0.0 2.9 10.5 226
22/11/2020 13:20 12.7 51 420.6 600 0.0 3.1 11.1 219
22/11/2020 13:30 12.7 50 397.9 600 0.0 3.0 10.8 216
22/11/2020 13:40 12.6 49 381.6 600 0.0 2.8 9.9 231
22/11/2020 13:50 12.2 51 361.0 600 0.0 2.5 8.9 239
22/11/2020 14:00 12.4 49 339.8 600 0.0 2.4 8.6 234
22/11/2020 14:10 12.8 48 320.1 600 0.0 2.5 8.9 221
22/11/2020 14:20 12.9 48 293.5 600 0.0 2.4 8.7 233
22/11/2020 14:30 12.4 47 258.7 600 0.0 2.3 8.2 233
22/11/2020 14:40 12.6 47 248.2 600 0.0 2.1 7.6 239
22/11/2020 14:50 12.7 46 227.4 600 0.0 2.3 8.1 240
22/11/2020 15:00 12.5 46 184.9 600 0.0 2.3 8.2 224
22/11/2020 15:10 12.7 47 183.6 600 0.0 2.3 8.2 223
22/11/2020 15:20 12.4 46 183.5 600 0.0 2.4 8.5 230
22/11/2020 15:30 12.4 46 148.9 600 0.0 2.2 8.1 227
22/11/2020 15:40 12.2 47 130.3 600 0.0 2.3 8.2 220
22/11/2020 15:50 12.2 48 113.9 600 0.0 2.0 7.1 220
22/11/2020 16:00 12.1 50 88.1 600 0.0 1.6 5.8 212
22/11/2020 16:10 11.3 53 65.4 600 0.0 1.7 6.3 220
22/11/2020 16:20 10.4 55 43.3 600 0.0 1.6 5.7 212
22/11/2020 16:30 9.3 56 16.9 62 0.0 1.8 6.4 176
22/11/2020 16:40 8.1 61 0.0 0 0.0 1.7 5.9 165
22/11/2020 16:50 7.0 66 0.0 0 0.0 1.7 6.2 170
22/11/2020 17:00 6.2 69 0.0 0 0.0 1.9 6.8 166
22/11/2020 17:10 5.8 71 0.0 0 0.0 1.6 5.7 183
22/11/2020 17:20 5.0 74 0.0 0 0.0 1.5 5.4 189
22/11/2020 17:30 4.9 75 0.0 0 0.0 1.3 4.7 192
22/11/2020 17:40 4.9 74 0.0 0 0.0 1.4 5.1 197
22/11/2020 17:50 5.0 74 0.0 0 0.0 1.3 4.8 197
22/11/2020 18:00 4.7 75 0.0 0 0.0 1.4 4.9 196
22/11/2020 18:10 4.6 75 0.0 0 0.0 1.4 5.1 196
22/11/2020 18:20 4.8 74 0.0 0 0.0 1.3 4.6 202
22/11/2020 18:30 4.8 73 0.0 0 0.0 0.9 3.4 206
22/11/2020 18:40 4.7 74 0.0 0 0.0 0.6 2.2 208
22/11/2020 18:50 4.3 75 0.0 0 0.0 1.1 4.1 197
22/11/2020 19:00 3.5 78 0.0 0 0.0 1.8 6.4 198
22/11/2020 19:10 3.3 80 0.0 0 0.0 1.6 5.8 194
22/11/2020 19:20 3.5 79 0.0 0 0.0 1.7 6.2 189
22/11/2020 19:30 3.2 79 0.0 0 0.0 1.8 6.4 200
22/11/2020 19:40 3.4 79 0.0 0 0.0 1.4 4.9 196
22/11/2020 19:50 3.3 79 0.0 0 0.0 1.2 4.5 196
22/11/2020 20:00 3.4 78 0.0 0 0.0 1.8 6.4 200
22/11/2020 20:10 3.4 78 0.0 0 0.0 1.7 6.0 213
22/11/2020 20:20 4.0 75 0.0 0 0.0 1.4 5.2 212
22/11/2020 20:30 3.5 78 0.0 0 0.0 1.6 5.7 196
22/11/2020 20:40 3.6 77 0.0 0 0.0 1.4 5.2 196
22/11/2020 20:50 3.4 78 0.0 0 0.0 1.5 5.3 200
22/11/2020 21:00 3.4 78 0.0 0 0.0 1.4 5.1 216
22/11/2020 21:10 3.1 79 0.0 0 0.0 1.4 4.9 212
22/11/2020 21:20 3.3 79 0.0 0 0.0 1.2 4.3 203
22/11/2020 21:30 3.3 78 0.0 0 0.0 1.3 4.6 195
22/11/2020 21:40 3.0 79 0.0 0 0.0 1.6 5.9 183
22/11/2020 21:50 3.0 80 0.0 0 0.0 1.3 4.5 198
22/11/2020 22:00 3.5 77 0.0 0 0.0 1.1 4.0 207
22/11/2020 22:10 3.5 77 0.0 0 0.0 0.2 0.8 206
22/11/2020 22:20 3.5 77 0.0 0 0.0 0.2 0.5 218
22/11/2020 22:30 3.3 77 0.0 0 0.0 0.7 2.4 276
22/11/2020 22:40 2.5 79 0.0 0 0.0 2.1 7.5 39
22/11/2020 22:50 2.5 81 0.0 0 0.0 2.7 9.6 38
22/11/2020 23:00 1.9 84 0.0 0 0.0 2.8 10.0 27
22/11/2020 23:10 1.8 85 0.0 0 0.0 2.2 8.0 26
22/11/2020 23:20 2.0 84 0.0 0 0.0 2.1 7.5 49
22/11/2020 23:30 1.8 85 0.0 0 0.0 2.2 7.8 54
22/11/2020 23:40 1.9 86 0.0 0 0.0 2.0 7.3 55
22/11/2020 23:50 2.0 86 0.0 0 0.0 2.1 7.6 39
Anterior Página 1 de 1 Siguiente

NOTA: Tipo de datos según el color:
   - Valores diarios o 10 minutos correctos
   - Valores diarios calculados a partir de un número de datos 10 minutos menor que 144 y mayor que 120, o de un número de datos semihorarios menor que 48 y mayor que 40 (caso de las estaciones de INTIA Y Ministerio)
   - Valores diez minutos estimados


Contacto        Enlaces        Aviso legal